Terminal Aerodrome Forecast
Issued by NWS

Home | Current Version | Previous Version | Text Only | Print | Product List | Glossary On
Versions: 1 2 3 4 5 6 7 8 9 10 11 12 13 14
000
FTPA31 PHFO 070541
TAFHOG
TAF
PHOG 070541Z 0706/0806 05008KT P6SM VCSH SCT025 BKN050
     FM070800 08005KT P6SM FEW030 SCT050
     FM071900 03009KT P6SM FEW030 SCT050 BKN200
     FM080000 03010KT P6SM VCSH SCT025 BKN050 BKN200
     FM080500 VRB04KT P6SM VCSH SCT025 BKN050 BKN150=

USA.gov is the U.S. government's official web portal to all federal, state and local government web resources and services.